Time;durP1;ratioP1;P1;durP2;ratioP2;P2;SDS_P1;SDS_P2;PMS_P1;PMS_P2;Temp;Humidity;BMP_temperature;BMP_pressure;BME280_temperature;BME280_humidity;BME280_pressure;Samples;Min_cycle;Max_cycle;Signal;HPM_P1;HPM_P2
2023/07/16 00:00:04;;;;;;;3.53;2.35;;;;;;;;;;4981899;28;20470;-67
2023/07/16 00:02:30;;;;;;;3.08;2.05;;;;;;;;;;4981499;28;20026;-67
2023/07/16 00:04:55;;;;;;;3.30;2.10;;;;;;;;;;4979048;28;20015;-66
2023/07/16 00:07:21;;;;;;;2.38;1.42;;;;;;;;;;4981545;28;20023;-65
2023/07/16 00:09:46;;;;;;;4.38;1.75;;;;;;;;;;4982644;28;20104;-65
2023/07/16 00:12:11;;;;;;;3.75;2.22;;;;;;;;;;4980583;28;20030;-65
2023/07/16 00:14:37;;;;;;;2.58;1.85;;;;;;;;;;4982672;28;20030;-65
2023/07/16 00:17:02;;;;;;;4.13;1.98;;;;;;;;;;4982481;28;20041;-66
2023/07/16 00:19:28;;;;;;;4.00;2.28;;;;;;;;;;4980561;28;20102;-65
2023/07/16 00:21:53;;;;;;;3.83;2.10;;;;;;;;;;4980660;28;20031;-65
2023/07/16 00:24:18;;;;;;;4.03;2.53;;;;;;;;;;4979864;28;20101;-65
2023/07/16 00:26:44;;;;;;;4.28;2.08;;;;;;;;;;4981127;28;20049;-65
2023/07/16 00:29:09;;;;;;;3.08;2.00;;;;;;;;;;4980820;28;20050;-65
2023/07/16 00:31:35;;;;;;;3.50;2.40;;;;;;;;;;4982292;28;20030;-65
2023/07/16 00:34:00;;;;;;;2.63;1.80;;;;;;;;;;4982102;28;20026;-65
2023/07/16 00:36:26;;;;;;;3.40;2.15;;;;;;;;;;4977688;28;20031;-65
2023/07/16 00:38:51;;;;;;;5.05;2.28;;;;;;;;;;4981350;28;20498;-64
2023/07/16 00:41:16;;;;;;;4.47;2.15;;;;;;;;;;4983602;28;20053;-65
2023/07/16 00:43:42;;;;;;;3.40;2.42;;;;;;;;;;4979746;28;20482;-65
2023/07/16 00:46:08;;;;;;;3.40;2.25;;;;;;;;;;4982738;28;20026;-65
2023/07/16 00:48:34;;;;;;;4.47;2.25;;;;;;;;;;4980211;28;20037;-63
2023/07/16 00:51:01;;;;;;;4.03;2.38;;;;;;;;;;4965464;28;20469;-65
2023/07/16 00:53:27;;;;;;;3.17;1.92;;;;;;;;;;4975107;28;20018;-65
2023/07/16 00:55:52;;;;;;;3.75;2.25;;;;;;;;;;4980181;28;20114;-65
2023/07/16 00:58:18;;;;;;;3.03;1.98;;;;;;;;;;4982590;28;20033;-65
2023/07/16 01:00:43;;;;;;;3.05;2.10;;;;;;;;;;4979540;28;20049;-65
2023/07/16 01:03:11;;;;;;;4.25;1.77;;;;;;;;;;4981446;28;20077;-65
2023/07/16 01:05:48;;;;;;;3.67;2.40;;;;;;;;;;4981490;28;20019;-65
2023/07/16 01:08:30;;;;;;;3.30;1.70;;;;;;;;;;4980658;28;20101;-65
2023/07/16 01:10:55;;;;;;;;;;;;;;;;;;4986172;28;20072;-65
2023/07/16 01:13:21;;;;;;;3.22;2.10;;;;;;;;;;4979480;28;19913;-65
2023/07/16 01:15:46;;;;;;;3.78;2.45;;;;;;;;;;4979355;28;20053;-65
2023/07/16 01:18:12;;;;;;;4.10;1.80;;;;;;;;;;4980977;28;20109;-65
2023/07/16 01:20:37;;;;;;;5.03;3.03;;;;;;;;;;4980510;28;20537;-65
2023/07/16 01:23:06;;;;;;;2.67;1.80;;;;;;;;;;4976833;28;20034;-65
2023/07/16 01:25:55;;;;;;;3.75;2.20;;;;;;;;;;4963527;28;20038;-65
2023/07/16 01:28:35;;;;;;;1.95;1.75;;;;;;;;;;4980560;28;20054;-65
2023/07/16 01:31:01;;;;;;;4.03;3.03;;;;;;;;;;4979063;28;20031;-65
2023/07/16 01:33:27;;;;;;;2.30;1.77;;;;;;;;;;4980174;28;20072;-65
2023/07/16 01:35:53;;;;;;;2.85;1.88;;;;;;;;;;4978131;28;20026;-65
2023/07/16 01:38:20;;;;;;;4.18;2.42;;;;;;;;;;4983989;28;20019;-64
2023/07/16 01:40:46;;;;;;;3.85;2.35;;;;;;;;;;4980204;28;20041;-64
2023/07/16 01:43:12;;;;;;;2.20;1.70;;;;;;;;;;4980774;28;20022;-65
2023/07/16 01:45:41;;;;;;;2.53;1.92;;;;;;;;;;4967538;28;20041;-65
2023/07/16 01:48:20;;;;;;;2.58;1.83;;;;;;;;;;4981210;28;20742;-63
2023/07/16 01:50:45;;;;;;;3.35;2.40;;;;;;;;;;4976097;28;20085;-65
2023/07/16 01:53:11;;;;;;;2.45;1.63;;;;;;;;;;4976790;28;20019;-65
2023/07/16 01:55:36;;;;;;;5.75;2.40;;;;;;;;;;4985264;28;20030;-65
2023/07/16 01:58:01;;;;;;;3.67;2.20;;;;;;;;;;4977445;28;20089;-64
2023/07/16 02:00:27;;;;;;;4.20;2.20;;;;;;;;;;4977090;28;20046;-65
2023/07/16 02:02:52;;;;;;;3.30;1.90;;;;;;;;;;4982107;28;20096;-64
2023/07/16 02:05:17;;;;;;;4.82;2.35;;;;;;;;;;4983065;28;20022;-64
2023/07/16 02:07:43;;;;;;;4.03;2.10;;;;;;;;;;4977188;28;20081;-64
2023/07/16 02:10:08;;;;;;;3.00;2.03;;;;;;;;;;4980241;28;20026;-64
2023/07/16 02:12:34;;;;;;;2.03;1.48;;;;;;;;;;4975556;28;20034;-65
2023/07/16 02:14:59;;;;;;;2.80;2.10;;;;;;;;;;4980429;28;20419;-64
2023/07/16 02:17:25;;;;;;;2.17;1.65;;;;;;;;;;4982445;28;20188;-63
2023/07/16 02:19:50;;;;;;;3.67;2.28;;;;;;;;;;4977248;28;20030;-64
2023/07/16 02:22:15;;;;;;;3.28;1.70;;;;;;;;;;4973773;28;20029;-64
2023/07/16 02:24:41;;;;;;;2.88;1.98;;;;;;;;;;4979352;28;20541;-64
2023/07/16 02:27:07;;;;;;;3.03;2.00;;;;;;;;;;4979388;28;20494;-64
2023/07/16 02:29:33;;;;;;;2.92;2.08;;;;;;;;;;4978326;28;20022;-64
2023/07/16 02:31:58;;;;;;;1.67;1.42;;;;;;;;;;4976330;28;20033;-64
2023/07/16 02:34:23;;;;;;;4.53;2.05;;;;;;;;;;4969799;28;20035;-64
2023/07/16 02:36:49;;;;;;;2.03;1.58;;;;;;;;;;4978867;28;20054;-64
2023/07/16 02:39:14;;;;;;;2.53;1.90;;;;;;;;;;4979511;28;20372;-64
2023/07/16 02:41:39;;;;;;;2.50;1.90;;;;;;;;;;4976781;28;20019;-64
2023/07/16 02:44:05;;;;;;;2.42;2.20;;;;;;;;;;4976736;28;20033;-64
2023/07/16 02:46:31;;;;;;;2.80;1.90;;;;;;;;;;4978640;28;20041;-64
2023/07/16 02:48:56;;;;;;;3.13;1.80;;;;;;;;;;4982464;28;20037;-63
2023/07/16 02:51:22;;;;;;;2.90;1.90;;;;;;;;;;4976326;28;20026;-64
2023/07/16 02:53:47;;;;;;;4.30;1.90;;;;;;;;;;4956150;28;20022;-64
2023/07/16 02:56:12;;;;;;;3.03;1.80;;;;;;;;;;4978577;28;20023;-64
2023/07/16 02:58:38;;;;;;;3.72;2.33;;;;;;;;;;4977730;28;20030;-64
2023/07/16 03:01:03;;;;;;;2.83;2.10;;;;;;;;;;4981247;28;20623;-64
2023/07/16 03:03:29;;;;;;;4.07;1.83;;;;;;;;;;4977309;28;20101;-64
2023/07/16 03:05:54;;;;;;;2.88;1.90;;;;;;;;;;4976947;28;20088;-64
2023/07/16 03:08:21;;;;;;;3.17;1.80;;;;;;;;;;4976343;28;20046;-64
2023/07/16 03:10:46;;;;;;;3.13;1.85;;;;;;;;;;4980939;28;20540;-64
2023/07/16 03:13:11;;;;;;;2.70;1.90;;;;;;;;;;4977633;28;20066;-64
2023/07/16 03:15:37;;;;;;;3.08;1.90;;;;;;;;;;4977005;28;20026;-64
2023/07/16 03:18:02;;;;;;;1.83;1.30;;;;;;;;;;4984216;28;20053;-64
2023/07/16 03:20:28;;;;;;;3.20;2.00;;;;;;;;;;4981334;28;20113;-64
2023/07/16 03:22:53;;;;;;;2.80;1.90;;;;;;;;;;4977381;28;20439;-63
2023/07/16 03:25:18;;;;;;;2.40;1.60;;;;;;;;;;4977865;28;20026;-64
2023/07/16 03:27:44;;;;;;;2.85;1.70;;;;;;;;;;4975562;28;20034;-64
2023/07/16 03:30:09;;;;;;;1.88;1.63;;;;;;;;;;4978967;28;20074;-64
2023/07/16 03:32:35;;;;;;;2.58;1.50;;;;;;;;;;4978801;28;20038;-64
2023/07/16 03:35:00;;;;;;;2.53;1.60;;;;;;;;;;4979570;28;20022;-64
2023/07/16 03:37:25;;;;;;;1.73;1.27;;;;;;;;;;4976156;28;20030;-64
2023/07/16 03:39:51;;;;;;;3.40;1.77;;;;;;;;;;4976301;28;20022;-63
2023/07/16 03:42:16;;;;;;;2.78;1.65;;;;;;;;;;4978685;28;20023;-64
2023/07/16 03:44:42;;;;;;;3.38;1.70;;;;;;;;;;4974751;28;20208;-64
2023/07/16 03:47:07;;;;;;;2.30;1.50;;;;;;;;;;4977183;28;20026;-65
2023/07/16 03:49:33;;;;;;;4.78;4.18;;;;;;;;;;4975544;28;20086;-64
2023/07/16 03:51:58;;;;;;;3.10;1.63;;;;;;;;;;4976209;28;20471;-64
2023/07/16 03:54:23;;;;;;;1.38;1.27;;;;;;;;;;4977098;28;20490;-64
2023/07/16 03:56:49;;;;;;;2.50;1.20;;;;;;;;;;4978913;28;20101;-64
2023/07/16 03:59:14;;;;;;;4.75;1.75;;;;;;;;;;4977840;28;20023;-65
2023/07/16 04:01:40;;;;;;;3.58;1.60;;;;;;;;;;4975645;28;20522;-64
2023/07/16 04:04:05;;;;;;;2.30;1.80;;;;;;;;;;4976007;28;20467;-64
2023/07/16 04:06:30;;;;;;;3.22;1.48;;;;;;;;;;4974899;28;20399;-64
2023/07/16 04:08:56;;;;;;;2.85;1.40;;;;;;;;;;4976616;28;20037;-64
2023/07/16 04:11:21;;;;;;;1.60;1.30;;;;;;;;;;4983900;28;20029;-64
2023/07/16 04:13:46;;;;;;;3.28;1.65;;;;;;;;;;4973500;28;20025;-64
2023/07/16 04:16:12;;;;;;;4.20;1.63;;;;;;;;;;4979239;28;20471;-64
2023/07/16 04:18:37;;;;;;;4.22;1.73;;;;;;;;;;4976464;28;20102;-64
2023/07/16 04:21:03;;;;;;;3.92;1.60;;;;;;;;;;4981658;28;20022;-64
2023/07/16 04:23:28;;;;;;;2.38;1.48;;;;;;;;;;4980644;28;20102;-64
2023/07/16 04:25:55;;;;;;;4.25;1.40;;;;;;;;;;4977015;28;20769;-65
2023/07/16 04:28:20;;;;;;;2.10;1.52;;;;;;;;;;4971546;28;20136;-65
2023/07/16 04:30:45;;;;;;;2.97;1.50;;;;;;;;;;4991719;23;20006;-65
2023/07/16 04:33:11;;;;;;;3.20;1.60;;;;;;;;;;5033418;28;20462;-65
2023/07/16 04:35:36;;;;;;;2.95;1.25;;;;;;;;;;5033481;28;20030;-65
2023/07/16 04:38:02;;;;;;;2.05;1.33;;;;;;;;;;5041820;28;20056;-65
2023/07/16 04:40:29;;;;;;;1.95;1.10;;;;;;;;;;5042204;28;20059;-65
2023/07/16 04:42:55;;;;;;;1.85;1.20;;;;;;;;;;5016559;28;20075;-65
2023/07/16 04:45:20;;;;;;;4.45;1.70;;;;;;;;;;5019078;28;20044;-65
2023/07/16 04:47:46;;;;;;;3.65;1.58;;;;;;;;;;5019142;28;20393;-65
2023/07/16 04:50:11;;;;;;;3.10;1.27;;;;;;;;;;5018908;28;20060;-65
2023/07/16 04:52:37;;;;;;;3.42;1.40;;;;;;;;;;5019140;28;20025;-65
2023/07/16 04:55:03;;;;;;;3.15;1.45;;;;;;;;;;5017246;28;20029;-65
2023/07/16 04:57:29;;;;;;;2.17;1.27;;;;;;;;;;5016542;28;20022;-65
2023/07/16 04:59:54;;;;;;;3.58;1.38;;;;;;;;;;5016356;28;20087;-65
2023/07/16 05:02:19;;;;;;;2.95;1.40;;;;;;;;;;5017689;28;20045;-65
2023/07/16 05:04:47;;;;;;;3.47;1.35;;;;;;;;;;5015182;28;20022;-66
2023/07/16 05:07:13;;;;;;;3.35;1.63;;;;;;;;;;5017932;28;20084;-65
2023/07/16 05:09:39;;;;;;;4.63;1.50;;;;;;;;;;5007011;28;20029;-65
2023/07/16 05:12:04;;;;;;;5.82;1.60;;;;;;;;;;5017312;28;20389;-64
2023/07/16 05:14:30;;;;;;;2.75;1.15;;;;;;;;;;5019232;28;20017;-65
2023/07/16 05:16:56;;;;;;;3.08;1.30;;;;;;;;;;5012684;28;20367;-64
2023/07/16 05:19:22;;;;;;;2.85;1.35;;;;;;;;;;5015115;28;20551;-65
2023/07/16 05:21:47;;;;;;;5.20;1.42;;;;;;;;;;5015148;28;20116;-65
2023/07/16 05:24:13;;;;;;;2.28;1.35;;;;;;;;;;5016399;28;20059;-65
2023/07/16 05:26:38;;;;;;;1.98;1.10;;;;;;;;;;5016153;28;20026;-66
2023/07/16 05:29:04;;;;;;;3.50;1.52;;;;;;;;;;5019571;28;20069;-66
2023/07/16 05:31:29;;;;;;;1.90;1.20;;;;;;;;;;5018162;28;20740;-65
2023/07/16 05:33:55;;;;;;;2.60;1.67;;;;;;;;;;4998437;28;20017;-65
2023/07/16 05:36:20;;;;;;;2.90;1.35;;;;;;;;;;5014579;28;20440;-65
2023/07/16 05:38:45;;;;;;;2.45;1.33;;;;;;;;;;5014811;28;20367;-65
2023/07/16 05:41:11;;;;;;;3.28;1.27;;;;;;;;;;5018648;28;21462;-65
2023/07/16 05:43:36;;;;;;;9.90;1.60;;;;;;;;;;5016739;28;20018;-65
2023/07/16 05:46:02;;;;;;;2.85;0.98;;;;;;;;;;5016725;28;20021;-66
2023/07/16 05:48:27;;;;;;;2.58;1.15;;;;;;;;;;5012034;28;20029;-65
2023/07/16 05:50:52;;;;;;;3.53;1.50;;;;;;;;;;5014189;28;20025;-65
2023/07/16 05:53:18;;;;;;;2.22;1.17;;;;;;;;;;5017672;28;20067;-65
2023/07/16 05:55:43;;;;;;;4.10;1.48;;;;;;;;;;5018383;28;20409;-66
2023/07/16 05:58:09;;;;;;;2.83;0.98;;;;;;;;;;5014999;28;20044;-65
2023/07/16 06:00:37;;;;;;;3.65;1.02;;;;;;;;;;5012976;28;20022;-65
2023/07/16 06:03:03;;;;;;;1.58;0.93;;;;;;;;;;5016091;28;20159;-64
2023/07/16 06:05:32;;;;;;;1.90;1.35;;;;;;;;;;5016009;28;20120;-65
2023/07/16 06:07:58;;;;;;;7.68;1.48;;;;;;;;;;5017222;28;20464;-65
2023/07/16 06:10:23;;;;;;;2.80;1.27;;;;;;;;;;5014362;28;20038;-65
2023/07/16 06:12:48;;;;;;;4.55;1.50;;;;;;;;;;5015332;28;20037;-65
2023/07/16 06:15:14;;;;;;;2.25;1.40;;;;;;;;;;5007849;28;20041;-65
2023/07/16 06:17:39;;;;;;;5.32;1.33;;;;;;;;;;5014079;28;20037;-65
2023/07/16 06:20:07;;;;;;;3.53;1.38;;;;;;;;;;5016372;28;20025;-65
2023/07/16 06:22:32;;;;;;;2.53;0.98;;;;;;;;;;5017078;28;20056;-65
2023/07/16 06:24:58;;;;;;;3.13;1.23;;;;;;;;;;5013556;28;20052;-65
2023/07/16 06:27:23;;;;;;;2.42;1.00;;;;;;;;;;5013244;28;20025;-65
2023/07/16 06:29:48;;;;;;;2.78;1.05;;;;;;;;;;5014681;28;20033;-65
2023/07/16 06:32:14;;;;;;;4.28;1.30;;;;;;;;;;5015762;28;20033;-65
2023/07/16 06:34:39;;;;;;;2.42;1.17;;;;;;;;;;5013349;28;20667;-65
2023/07/16 06:37:05;;;;;;;3.92;1.35;;;;;;;;;;5011031;28;20735;-65
2023/07/16 06:39:31;;;;;;;3.17;1.33;;;;;;;;;;5010890;28;20792;-65
2023/07/16 06:41:57;;;;;;;2.58;1.02;;;;;;;;;;5019981;28;20029;-65
2023/07/16 06:44:23;;;;;;;3.00;1.05;;;;;;;;;;5013563;28;20022;-65
2023/07/16 06:46:48;;;;;;;2.05;1.05;;;;;;;;;;5013718;28;20524;-65
2023/07/16 06:49:14;;;;;;;2.80;1.05;;;;;;;;;;5016236;28;20060;-65
2023/07/16 06:51:39;;;;;;;3.72;1.40;;;;;;;;;;5017326;28;20034;-65
2023/07/16 06:54:04;;;;;;;3.67;1.20;;;;;;;;;;5017149;28;20021;-69
2023/07/16 06:56:30;;;;;;;3.03;1.10;;;;;;;;;;5017186;28;20049;-64
2023/07/16 06:58:55;;;;;;;2.55;0.93;;;;;;;;;;5014145;28;20026;-64
2023/07/16 07:01:21;;;;;;;3.30;1.15;;;;;;;;;;5018502;28;20513;-65
2023/07/16 07:03:46;;;;;;;1.30;0.98;;;;;;;;;;5012847;28;20021;-65
2023/07/16 07:06:11;;;;;;;3.92;1.23;;;;;;;;;;5016571;28;20024;-65
2023/07/16 07:08:37;;;;;;;3.22;1.23;;;;;;;;;;5014387;28;20478;-64
2023/07/16 07:11:04;;;;;;;4.18;1.40;;;;;;;;;;5018572;28;20032;-64
2023/07/16 07:13:29;;;;;;;2.42;1.20;;;;;;;;;;5014402;28;20026;-64
2023/07/16 07:15:56;;;;;;;2.00;1.10;;;;;;;;;;5016777;28;20048;-64
2023/07/16 07:18:21;;;;;;;1.90;0.98;;;;;;;;;;5011985;28;20092;-64
2023/07/16 07:20:51;;;;;;;2.90;1.40;;;;;;;;;;5013551;28;20593;-65
2023/07/16 07:23:16;;;;;;;1.65;0.80;;;;;;;;;;5000616;28;20029;-65
2023/07/16 07:25:42;;;;;;;2.38;1.00;;;;;;;;;;5013667;28;20738;-64
2023/07/16 07:28:07;;;;;;;2.55;1.33;;;;;;;;;;5011378;28;20029;-65
2023/07/16 07:30:33;;;;;;;6.13;1.55;;;;;;;;;;4998776;28;20025;-65
2023/07/16 07:32:58;;;;;;;3.40;1.20;;;;;;;;;;5013354;28;20029;-65
2023/07/16 07:35:24;;;;;;;1.30;0.88;;;;;;;;;;5015028;28;20489;-65
2023/07/16 07:37:49;;;;;;;2.20;1.10;;;;;;;;;;5019316;28;20028;-64
2023/07/16 07:40:15;;;;;;;4.07;1.17;;;;;;;;;;5019504;28;20048;-64
2023/07/16 07:42:40;;;;;;;5.05;1.33;;;;;;;;;;5016656;28;20029;-64
2023/07/16 07:45:06;;;;;;;2.22;1.00;;;;;;;;;;5013296;28;20805;-64
2023/07/16 07:47:31;;;;;;;6.18;1.27;;;;;;;;;;5017891;28;20537;-65
2023/07/16 07:49:57;;;;;;;1.77;0.95;;;;;;;;;;5013638;28;20030;-64
2023/07/16 07:52:22;;;;;;;4.75;1.70;;;;;;;;;;5014089;28;21260;-65
2023/07/16 07:54:48;;;;;;;4.03;1.10;;;;;;;;;;5014306;28;20037;-64
2023/07/16 07:57:14;;;;;;;4.97;1.13;;;;;;;;;;5017984;28;20102;-64
2023/07/16 07:59:40;;;;;;;2.13;0.90;;;;;;;;;;5016075;28;20108;-64
2023/07/16 08:02:05;;;;;;;2.78;1.10;;;;;;;;;;5015399;28;20196;-64
2023/07/16 08:04:32;;;;;;;3.50;1.02;;;;;;;;;;5014529;28;20488;-64
2023/07/16 08:06:57;;;;;;;5.00;1.70;;;;;;;;;;5013587;28;20044;-65
2023/07/16 08:09:23;;;;;;;2.75;1.02;;;;;;;;;;5013239;28;20593;-65
2023/07/16 08:11:49;;;;;;;3.40;1.60;;;;;;;;;;5021428;28;20029;-64
2023/07/16 08:14:14;;;;;;;1.42;0.90;;;;;;;;;;5015401;28;20469;-64
2023/07/16 08:16:39;;;;;;;3.28;1.27;;;;;;;;;;5019423;28;20473;-64
2023/07/16 08:19:05;;;;;;;3.63;1.25;;;;;;;;;;5023696;28;20028;-64
2023/07/16 08:21:32;;;;;;;4.03;1.38;;;;;;;;;;5021368;28;20025;-65
2023/07/16 08:23:57;;;;;;;2.88;0.82;;;;;;;;;;5019703;28;20029;-65
2023/07/16 08:26:23;;;;;;;2.60;1.10;;;;;;;;;;5024780;28;20036;-64
2023/07/16 08:28:48;;;;;;;2.40;1.10;;;;;;;;;;5023215;28;20025;-64
2023/07/16 08:31:13;;;;;;;3.47;1.30;;;;;;;;;;5021566;28;20518;-65
2023/07/16 08:33:39;;;;;;;2.83;1.42;;;;;;;;;;5023163;28;20041;-64
2023/07/16 08:36:05;;;;;;;3.00;1.15;;;;;;;;;;5021001;28;20026;-64
2023/07/16 08:38:31;;;;;;;5.63;1.95;;;;;;;;;;5022137;28;20080;-65
2023/07/16 08:40:56;;;;;;;2.08;1.10;;;;;;;;;;5024751;28;20034;-65
2023/07/16 08:43:22;;;;;;;3.28;1.10;;;;;;;;;;5014012;28;20029;-65
2023/07/16 08:45:49;;;;;;;2.17;1.20;;;;;;;;;;5013414;28;20405;-65
2023/07/16 08:48:18;;;;;;;3.08;1.38;;;;;;;;;;5015259;28;20044;-65
2023/07/16 08:50:48;;;;;;;4.05;2.10;;;;;;;;;;5011117;28;20106;-65
2023/07/16 08:53:16;;;;;;;5.95;1.55;;;;;;;;;;5016157;28;20136;-65
2023/07/16 08:55:43;;;;;;;2.58;1.05;;;;;;;;;;5015691;28;20025;-65
2023/07/16 08:58:10;;;;;;;3.88;1.30;;;;;;;;;;5015100;28;20029;-65
2023/07/16 09:00:35;;;;;;;3.50;1.30;;;;;;;;;;5015744;28;20643;-64
2023/07/16 09:03:01;;;;;;;2.75;1.00;;;;;;;;;;5012376;28;20109;-64
2023/07/16 09:05:29;;;;;;;2.63;1.00;;;;;;;;;;5013540;28;20033;-65
2023/07/16 09:07:54;;;;;;;2.70;1.10;;;;;;;;;;5016506;28;20157;-65
2023/07/16 09:10:20;;;;;;;3.38;1.10;;;;;;;;;;5016279;28;20456;-65
2023/07/16 09:12:46;;;;;;;1.98;1.17;;;;;;;;;;5017614;28;20485;-65
2023/07/16 09:15:13;;;;;;;1.20;0.80;;;;;;;;;;5014659;28;20020;-65
2023/07/16 09:17:38;;;;;;;1.40;0.90;;;;;;;;;;5017303;28;20722;-65
2023/07/16 09:20:06;;;;;;;4.88;1.38;;;;;;;;;;5013465;28;20033;-65
2023/07/16 09:22:33;;;;;;;2.42;1.20;;;;;;;;;;5015403;28;20030;-65
2023/07/16 09:25:03;;;;;;;2.45;1.05;;;;;;;;;;4998627;28;20112;-65
2023/07/16 09:27:29;;;;;;;4.43;1.70;;;;;;;;;;5010952;28;20518;-65
2023/07/16 09:29:54;;;;;;;2.55;1.30;;;;;;;;;;5014357;28;20017;-65
2023/07/16 09:32:20;;;;;;;4.75;1.65;;;;;;;;;;5013109;28;20367;-65
2023/07/16 09:34:49;;;;;;;2.97;1.40;;;;;;;;;;5018327;28;20401;-65
2023/07/16 09:37:17;;;;;;;4.97;2.13;;;;;;;;;;5018512;28;20116;-65
2023/07/16 09:39:46;;;;;;;3.22;1.35;;;;;;;;;;5014993;28;20134;-65
2023/07/16 09:42:12;;;;;;;3.30;1.23;;;;;;;;;;5015003;28;20493;-65
2023/07/16 09:44:39;;;;;;;2.72;1.30;;;;;;;;;;5009655;28;20022;-64
2023/07/16 09:47:05;;;;;;;3.00;1.30;;;;;;;;;;5006408;28;20116;-65
2023/07/16 09:49:30;;;;;;;2.95;1.40;;;;;;;;;;5010456;28;20482;-64
2023/07/16 09:51:57;;;;;;;3.92;1.27;;;;;;;;;;4981877;28;20033;-65
2023/07/16 09:54:24;;;;;;;3.42;1.23;;;;;;;;;;5004621;28;20113;-65
2023/07/16 09:56:55;;;;;;;4.53;1.50;;;;;;;;;;5014973;28;20035;-65
2023/07/16 09:59:23;;;;;;;;;;;;;;;;;;5013645;28;20025;-64
2023/07/16 10:01:50;;;;;;;2.40;1.30;;;;;;;;;;5005203;28;19921;-64
2023/07/16 10:04:19;;;;;;;1.85;1.30;;;;;;;;;;5010415;28;20021;-64
2023/07/16 10:07:04;;;;;;;1.97;0.87;;;;;;;;;;5011756;28;20028;-65
2023/07/16 10:09:52;;;;;;;2.85;1.02;;;;;;;;;;5012722;28;20643;-65
2023/07/16 10:12:19;;;;;;;2.67;1.20;;;;;;;;;;4994865;28;20026;-65
2023/07/16 10:14:52;;;;;;;2.55;1.38;;;;;;;;;;5009123;28;20018;-65
2023/07/16 10:17:22;;;;;;;2.45;1.10;;;;;;;;;;5010744;28;20033;-65
2023/07/16 10:20:07;;;;;;;2.42;1.25;;;;;;;;;;5012223;28;20041;-65
2023/07/16 10:22:40;;;;;;;2.67;1.25;;;;;;;;;;5012276;28;20049;-65
2023/07/16 10:25:08;;;;;;;1.75;0.90;;;;;;;;;;5007508;28;20298;-65
2023/07/16 10:27:35;;;;;;;3.25;1.17;;;;;;;;;;5010908;28;20032;-65
2023/07/16 10:30:02;;;;;;;4.10;1.60;;;;;;;;;;5012061;28;20033;-65
2023/07/16 10:32:29;;;;;;;2.72;1.20;;;;;;;;;;5010309;28;20379;-64
2023/07/16 10:34:55;;;;;;;4.05;1.45;;;;;;;;;;4996569;28;20033;-65
2023/07/16 10:37:21;;;;;;;3.28;1.20;;;;;;;;;;4995762;28;20029;-66
2023/07/16 10:39:48;;;;;;;2.75;1.30;;;;;;;;;;5016929;28;20021;-66
2023/07/16 10:42:13;;;;;;;2.70;1.65;;;;;;;;;;5009179;28;20025;-66
2023/07/16 10:44:40;;;;;;;4.63;1.42;;;;;;;;;;5012447;28;20013;-67
2023/07/16 10:47:06;;;;;;;3.75;1.65;;;;;;;;;;4995062;28;20104;-67
2023/07/16 10:49:31;;;;;;;2.60;1.02;;;;;;;;;;5013913;28;20033;-64
2023/07/16 10:52:01;;;;;;;4.50;2.22;;;;;;;;;;5006022;28;20036;-65
2023/07/16 10:54:26;;;;;;;5.15;1.40;;;;;;;;;;5011899;28;20677;-65
2023/07/16 10:56:52;;;;;;;3.05;1.52;;;;;;;;;;5012695;28;20080;-65
2023/07/16 10:59:18;;;;;;;2.55;1.27;;;;;;;;;;5011774;28;20790;-65
2023/07/16 11:01:44;;;;;;;7.13;1.70;;;;;;;;;;5015089;28;20276;-65
2023/07/16 11:04:09;;;;;;;4.90;1.98;;;;;;;;;;5018661;28;20045;-65
2023/07/16 11:06:35;;;;;;;4.05;2.00;;;;;;;;;;5013962;28;20025;-65
2023/07/16 11:09:08;;;;;;;3.17;1.63;;;;;;;;;;5016095;28;20663;-65
2023/07/16 11:11:34;;;;;;;3.42;1.88;;;;;;;;;;5015595;28;20037;-65
2023/07/16 11:13:59;;;;;;;3.15;1.45;;;;;;;;;;5013289;28;20056;-65
2023/07/16 11:16:25;;;;;;;2.85;1.52;;;;;;;;;;5014330;28;20566;-65
2023/07/16 11:18:51;;;;;;;5.72;1.70;;;;;;;;;;5020448;28;20033;-66
2023/07/16 11:21:19;;;;;;;2.30;1.63;;;;;;;;;;5016796;28;20564;-65
2023/07/16 11:23:45;;;;;;;3.65;1.45;;;;;;;;;;5010681;28;20695;-65
2023/07/16 11:26:11;;;;;;;2.65;1.30;;;;;;;;;;5016159;28;20526;-65
2023/07/16 11:28:40;;;;;;;3.90;1.80;;;;;;;;;;5017101;28;21231;-66
2023/07/16 11:31:16;;;;;;;4.47;3.83;;;;;;;;;;5016120;28;20029;-66
2023/07/16 11:33:43;;;;;;;4.75;1.63;;;;;;;;;;5014009;28;20060;-65
2023/07/16 11:36:09;;;;;;;4.65;1.83;;;;;;;;;;5015720;28;20026;-65
2023/07/16 11:38:38;;;;;;;5.53;2.15;;;;;;;;;;5015805;28;20473;-65
2023/07/16 11:41:03;;;;;;;2.65;1.75;;;;;;;;;;5016040;28;20201;-65
2023/07/16 11:43:37;;;;;;;3.50;1.60;;;;;;;;;;5014786;28;20104;-65
2023/07/16 11:46:03;;;;;;;3.83;1.58;;;;;;;;;;5019555;28;20109;-65
2023/07/16 11:48:28;;;;;;;3.15;1.70;;;;;;;;;;5020411;28;20751;-65
2023/07/16 11:50:54;;;;;;;4.63;2.90;;;;;;;;;;5019004;28;20026;-65
2023/07/16 11:53:20;;;;;;;4.10;1.60;;;;;;;;;;5013820;28;20080;-64
2023/07/16 11:55:45;;;;;;;4.22;1.88;;;;;;;;;;5020866;28;20029;-65
2023/07/16 11:58:10;;;;;;;2.88;1.60;;;;;;;;;;5019872;28;20023;-65
2023/07/16 12:00:36;;;;;;;3.95;1.85;;;;;;;;;;5020247;28;20568;-66
2023/07/16 12:03:01;;;;;;;3.10;1.67;;;;;;;;;;5018705;28;20033;-65
2023/07/16 12:05:28;;;;;;;3.42;1.63;;;;;;;;;;5012649;28;20030;-65
2023/07/16 12:07:53;;;;;;;6.20;1.83;;;;;;;;;;5017327;28;20025;-65
2023/07/16 12:10:20;;;;;;;5.68;1.70;;;;;;;;;;5021013;28;20030;-66
2023/07/16 12:12:46;;;;;;;5.05;1.80;;;;;;;;;;5021279;28;20606;-65
2023/07/16 12:15:12;;;;;;;4.63;1.70;;;;;;;;;;5019623;28;20061;-66
2023/07/16 12:17:37;;;;;;;2.85;1.70;;;;;;;;;;5022083;28;20025;-66
2023/07/16 12:20:04;;;;;;;4.95;1.63;;;;;;;;;;5018498;28;20034;-65
2023/07/16 12:22:29;;;;;;;3.00;1.67;;;;;;;;;;5019358;28;20132;-66
2023/07/16 12:24:55;;;;;;;4.68;1.95;;;;;;;;;;5024438;28;20490;-65
2023/07/16 12:27:20;;;;;;;4.40;1.80;;;;;;;;;;5020217;28;20558;-65
2023/07/16 12:29:46;;;;;;;3.15;1.55;;;;;;;;;;5018989;28;20505;-65
2023/07/16 12:32:13;;;;;;;3.95;1.70;;;;;;;;;;5017091;28;20038;-65
2023/07/16 12:34:38;;;;;;;3.80;1.75;;;;;;;;;;5020722;28;20153;-65
2023/07/16 12:37:04;;;;;;;3.75;1.80;;;;;;;;;;5017501;28;20029;-66
2023/07/16 12:39:29;;;;;;;4.22;1.70;;;;;;;;;;5023204;28;20105;-66
2023/07/16 12:41:54;;;;;;;3.17;1.92;;;;;;;;;;5019380;28;20614;-66
2023/07/16 12:44:20;;;;;;;2.70;1.70;;;;;;;;;;5017576;28;20112;-65
2023/07/16 12:46:45;;;;;;;3.80;1.83;;;;;;;;;;5017423;28;20022;-65
2023/07/16 12:49:10;;;;;;;5.03;2.13;;;;;;;;;;5019767;28;20025;-65
2023/07/16 12:51:36;;;;;;;3.60;1.90;;;;;;;;;;5017700;28;20025;-66
2023/07/16 12:54:01;;;;;;;3.13;2.00;;;;;;;;;;5016008;28;20405;-65
2023/07/16 12:56:27;;;;;;;4.03;1.65;;;;;;;;;;5020563;28;20021;-65
2023/07/16 12:58:52;;;;;;;3.13;1.70;;;;;;;;;;5021511;28;20024;-65
2023/07/16 13:01:18;;;;;;;5.60;1.80;;;;;;;;;;5017562;28;20541;-65
2023/07/16 13:03:43;;;;;;;4.47;1.80;;;;;;;;;;5017237;28;20050;-65
2023/07/16 13:06:08;;;;;;;4.40;2.20;;;;;;;;;;5023083;28;20074;-65
2023/07/16 13:08:34;;;;;;;4.03;1.85;;;;;;;;;;5019728;28;20060;-65
2023/07/16 13:11:00;;;;;;;3.55;2.00;;;;;;;;;;5019700;28;20021;-66
2023/07/16 13:13:25;;;;;;;3.55;2.13;;;;;;;;;;5014923;28;20038;-65
2023/07/16 13:15:51;;;;;;;3.78;2.13;;;;;;;;;;5017479;28;20033;-65
2023/07/16 13:18:17;;;;;;;2.95;1.70;;;;;;;;;;5019183;28;20385;-66
2023/07/16 13:20:43;;;;;;;4.75;1.73;;;;;;;;;;5017751;28;20057;-66
2023/07/16 13:23:08;;;;;;;5.38;1.88;;;;;;;;;;5017973;28;20083;-65
2023/07/16 13:25:35;;;;;;;3.80;1.75;;;;;;;;;;5017176;28;20088;-65
2023/07/16 13:28:02;;;;;;;2.85;1.90;;;;;;;;;;5020741;28;20033;-66
2023/07/16 13:30:27;;;;;;;4.10;1.80;;;;;;;;;;5019014;28;20040;-66
2023/07/16 13:32:55;;;;;;;3.45;1.98;;;;;;;;;;5017606;28;20554;-65
2023/07/16 13:35:22;;;;;;;3.47;1.75;;;;;;;;;;5017094;28;20072;-65
2023/07/16 13:37:47;;;;;;;4.70;2.10;;;;;;;;;;5017560;28;20036;-65
2023/07/16 13:40:12;;;;;;;3.55;1.90;;;;;;;;;;5019441;28;20018;-66
2023/07/16 13:42:38;;;;;;;7.25;1.98;;;;;;;;;;5017579;28;20393;-64
2023/07/16 13:45:05;;;;;;;4.03;2.10;;;;;;;;;;5014799;28;20021;-66
2023/07/16 13:47:30;;;;;;;3.00;1.58;;;;;;;;;;5021157;28;20079;-65
2023/07/16 13:49:56;;;;;;;4.95;2.17;;;;;;;;;;5015792;28;20025;-65
2023/07/16 13:52:21;;;;;;;3.60;2.10;;;;;;;;;;5022574;28;20429;-64
2023/07/16 13:54:47;;;;;;;3.30;1.60;;;;;;;;;;5015970;28;20021;-65
2023/07/16 13:57:12;;;;;;;3.42;1.92;;;;;;;;;;5016979;28;20028;-65
2023/07/16 13:59:37;;;;;;;4.07;1.90;;;;;;;;;;5017843;28;20053;-66
2023/07/16 14:02:04;;;;;;;4.28;1.95;;;;;;;;;;5018048;28;20806;-65
2023/07/16 14:04:29;;;;;;;4.18;2.08;;;;;;;;;;5017872;28;20045;-64
2023/07/16 14:06:56;;;;;;;2.70;1.90;;;;;;;;;;5015602;28;20655;-65
2023/07/16 14:09:21;;;;;;;4.47;2.30;;;;;;;;;;5022463;28;20022;-65
2023/07/16 14:11:47;;;;;;;3.63;1.98;;;;;;;;;;5015947;28;20091;-66
2023/07/16 14:14:17;;;;;;;3.88;1.65;;;;;;;;;;5018878;28;20061;-66
2023/07/16 14:16:43;;;;;;;4.37;2.10;;;;;;;;;;5017286;28;20514;-65
2023/07/16 14:19:09;;;;;;;2.97;1.90;;;;;;;;;;5017699;28;20256;-65
2023/07/16 14:21:34;;;;;;;2.88;1.80;;;;;;;;;;5012382;28;20521;-65
2023/07/16 14:23:59;;;;;;;3.00;1.60;;;;;;;;;;5018843;28;20057;-66
2023/07/16 14:26:25;;;;;;;3.60;1.90;;;;;;;;;;5017405;28;20226;-65
2023/07/16 14:28:59;;;;;;;3.78;1.83;;;;;;;;;;5062449;27;20415;-66
2023/07/16 14:31:24;;;;;;;3.97;2.20;;;;;;;;;;5062309;28;20482;-65
2023/07/16 14:33:50;;;;;;;3.15;1.60;;;;;;;;;;5073128;28;20390;-66
2023/07/16 14:36:16;;;;;;;5.85;2.10;;;;;;;;;;5059291;28;20026;-66